createdAt,value
2018-12-03T08:31:14.462Z,60.06
2018-12-03T08:32:45.068Z,59.32
2018-12-03T08:33:45.198Z,59.80
2018-12-03T08:34:45.019Z,58.96
2018-12-03T08:35:45.003Z,59.16
2018-12-03T08:36:44.990Z,59.94
2018-12-03T08:37:44.979Z,59.84
2018-12-03T08:38:44.978Z,61.13
2018-12-03T08:39:44.966Z,58.87
2018-12-03T08:40:44.952Z,59.58
2018-12-03T08:41:44.936Z,58.07
2018-12-03T08:42:44.950Z,57.94
2018-12-03T08:43:45.434Z,56.81
2018-12-03T08:44:44.908Z,57.21
2018-12-03T08:45:44.906Z,57.68
2018-12-03T08:46:44.879Z,56.48
2018-12-03T08:47:44.883Z,57.18
2018-12-03T08:48:44.862Z,56.68
2018-12-03T08:49:44.939Z,56.45
2018-12-03T08:50:44.839Z,55.64
2018-12-03T08:51:44.848Z,56.15
2018-12-03T08:52:44.851Z,55.84
2018-12-03T08:53:44.865Z,55.74
2018-12-03T08:54:44.813Z,56.32
2018-12-03T08:55:44.797Z,55.51
2018-12-03T08:56:44.779Z,55.39
2018-12-03T08:57:44.770Z,55.19
2018-12-03T08:58:44.763Z,54.99
2018-12-03T08:59:44.747Z,54.38
2018-12-03T09:00:44.807Z,54.75
2018-12-03T09:01:44.725Z,54.66
2018-12-03T09:02:44.716Z,54.55
2018-12-03T09:03:44.714Z,54.46
2018-12-03T09:04:44.699Z,54.05
2018-12-03T09:05:44.678Z,54.86
2018-12-03T09:06:44.674Z,54.35
2018-12-03T09:07:44.665Z,54.05
2018-12-03T09:08:44.659Z,54.46
2018-12-03T09:09:44.657Z,54.46
2018-12-03T09:10:44.630Z,54.93
2018-12-03T09:11:44.616Z,54.66
2018-12-03T09:12:44.645Z,54.46
2018-12-03T09:13:44.608Z,54.43
2018-12-03T09:14:44.694Z,54.55
2018-12-03T09:15:44.578Z,54.03
2018-12-03T09:16:44.591Z,54.73
2018-12-03T09:17:44.572Z,54.33
2018-12-03T09:18:44.562Z,54.43
2018-12-03T09:19:44.543Z,53.83
2018-12-03T09:20:44.524Z,53.42
2018-12-03T09:21:44.511Z,53.70
2018-12-03T09:22:44.513Z,53.50
2018-12-03T09:23:44.492Z,53.40
2018-12-03T09:24:44.499Z,53.60
2018-12-03T09:25:44.467Z,53.40
2018-12-03T09:26:44.480Z,53.40
2018-12-03T09:27:44.490Z,53.30
2018-12-03T09:28:44.444Z,53.17
2018-12-03T09:29:44.428Z,53.67
2018-12-03T09:30:44.415Z,52.77
2018-12-03T09:31:44.411Z,52.47
2018-12-03T09:32:44.397Z,52.67
2018-12-03T09:33:44.414Z,52.77
2018-12-03T09:34:44.380Z,52.57
2018-12-03T09:35:44.371Z,52.77
2018-12-03T09:36:44.358Z,51.64
2018-12-03T09:37:44.350Z,51.74
2018-12-03T09:38:44.334Z,52.04
2018-12-03T09:39:44.318Z,51.72
2018-12-03T09:40:44.316Z,51.11
2018-12-03T09:41:44.322Z,51.11
2018-12-03T09:42:44.298Z,50.99
2018-12-03T09:43:44.284Z,50.71
2018-12-03T09:44:44.298Z,51.19
2018-12-03T09:45:44.340Z,50.59
2018-12-03T09:46:44.249Z,50.48
2018-12-03T09:47:44.234Z,50.89
2018-12-03T09:48:44.225Z,50.68
2018-12-03T09:49:44.223Z,50.99
2018-12-03T09:50:44.210Z,50.48
2018-12-03T09:51:44.231Z,50.89
2018-12-03T09:52:44.196Z,50.41
2018-12-03T09:53:44.200Z,51.21
2018-12-03T09:54:44.167Z,50.71
2018-12-03T09:55:44.157Z,51.72
2018-12-03T09:56:44.140Z,51.54
2018-12-03T09:57:44.129Z,51.72
2018-12-03T09:58:44.121Z,51.61
2018-12-03T09:59:44.133Z,51.72
2018-12-03T10:00:44.098Z,51.72
2018-12-03T10:01:44.089Z,51.51
2018-12-03T10:02:44.090Z,51.72
2018-12-03T10:03:44.062Z,50.89
2018-12-03T10:04:44.060Z,50.89
2018-12-03T10:05:44.052Z,50.66
2018-12-03T10:06:44.063Z,50.34
2018-12-03T10:07:44.061Z,49.84
2018-12-03T10:08:44.129Z,50.24
2018-12-03T10:09:44.009Z,50.46
2018-12-03T10:10:43.988Z,50.16
2018-12-03T10:11:43.991Z,49.86
2018-12-03T10:12:43.972Z,50.16
2018-12-03T10:13:43.963Z,50.16
2018-12-03T10:14:43.955Z,50.26
2018-12-03T10:15:43.941Z,49.96
2018-12-03T10:16:43.924Z,50.26
2018-12-03T10:17:43.918Z,50.06
2018-12-03T10:18:43.911Z,50.56
2018-12-03T10:19:43.895Z,50.16
2018-12-03T10:20:43.892Z,50.86
2018-12-03T10:21:43.877Z,51.89
2018-12-03T10:22:43.860Z,52.01
2018-12-03T10:23:43.865Z,52.01
2018-12-03T10:24:43.844Z,53.25
2018-12-03T10:25:43.843Z,53.45
2018-12-03T10:26:43.824Z,53.77
2018-12-03T10:27:43.810Z,54.68
2018-12-03T10:28:43.803Z,54.08
2018-12-03T10:29:43.795Z,53.97
2018-12-03T10:30:43.785Z,54.38
2018-12-03T10:31:43.771Z,54.17
2018-12-03T10:32:43.771Z,54.28
2018-12-03T10:33:43.750Z,53.67
2018-12-03T10:34:43.746Z,53.27
2018-12-03T10:35:43.729Z,53.14
2018-12-03T10:36:43.713Z,52.94
2018-12-03T10:37:43.706Z,53.25
2018-12-03T10:38:43.771Z,52.55
2018-12-03T10:39:43.686Z,52.64
2018-12-03T10:40:43.721Z,52.72
2018-12-03T10:41:43.673Z,52.82
2018-12-03T10:42:43.655Z,52.42
2018-12-03T10:43:43.643Z,51.79
2018-12-03T10:44:43.637Z,51.59
2018-12-03T10:45:43.624Z,51.89
2018-12-03T10:46:43.620Z,51.69
2018-12-03T10:47:43.601Z,51.09
2018-12-03T10:48:43.595Z,51.59
2018-12-03T10:49:43.584Z,51.56
2018-12-03T10:50:43.581Z,51.89
2018-12-03T10:51:43.570Z,51.99
2018-12-03T10:52:43.548Z,51.79
2018-12-03T10:53:43.538Z,51.69
2018-12-03T10:54:43.534Z,51.81
2018-12-03T10:55:43.512Z,52.82
2018-12-03T10:56:43.548Z,52.12
2018-12-03T10:57:43.498Z,52.12
2018-12-03T10:58:43.480Z,51.69
2018-12-03T10:59:43.466Z,52.29
2018-12-03T11:00:43.467Z,52.22
2018-12-03T11:01:43.447Z,51.99
2018-12-03T11:02:43.445Z,51.89
2018-12-03T11:03:43.430Z,51.46
2018-12-03T11:04:43.418Z,51.56
2018-12-03T11:05:43.414Z,51.67
2018-12-03T11:06:43.402Z,50.46
2018-12-03T11:07:43.406Z,50.86
2018-12-03T11:08:43.386Z,50.66
2018-12-03T11:09:43.363Z,50.96
2018-12-03T11:10:43.370Z,50.66
2018-12-03T11:11:43.396Z,50.66
2018-12-03T11:12:43.330Z,50.96
2018-12-03T11:13:43.332Z,50.94
2018-12-03T11:15:16.511Z,50.44
2018-12-03T11:16:16.464Z,50.66
2018-12-03T11:17:48.300Z,50.74
2018-12-03T11:18:48.014Z,50.36
2018-12-03T11:19:48.076Z,50.76
2018-12-03T11:20:48.000Z,50.66
2018-12-03T11:21:48.127Z,50.94
2018-12-03T11:22:47.973Z,50.44
2018-12-03T11:23:48.111Z,50.11
2018-12-03T11:24:47.956Z,50.04
2018-12-03T11:25:48.053Z,50.04
2018-12-03T11:26:47.944Z,50.44
2018-12-03T11:27:48.069Z,50.63
2018-12-03T11:28:47.920Z,50.74
2018-12-03T11:29:48.089Z,50.63
2018-12-03T11:30:47.899Z,50.63
2018-12-03T11:31:48.015Z,51.74
2018-12-03T11:32:47.866Z,52.07
2018-12-03T11:33:48.032Z,52.17
2018-12-03T11:34:47.843Z,52.89
2018-12-03T11:35:48.059Z,53.20
2018-12-03T11:36:47.881Z,53.32
2018-12-03T11:37:47.985Z,52.92
2018-12-03T11:38:47.795Z,54.33
2018-12-03T11:39:48.873Z,54.65
2018-12-03T11:40:47.781Z,54.25
2018-12-03T11:41:47.815Z,54.45
2018-12-03T11:42:47.755Z,54.28
2018-12-03T11:43:47.851Z,54.98
2018-12-03T11:44:47.754Z,54.78
2018-12-03T11:45:47.863Z,55.68
2018-12-03T11:46:47.790Z,56.19
2018-12-03T11:47:47.791Z,55.81
2018-12-03T11:48:47.752Z,55.71
2018-12-03T11:49:47.802Z,56.01
2018-12-03T11:50:47.664Z,56.11
2018-12-03T11:51:48.769Z,55.71
2018-12-03T11:52:48.481Z,56.62
2018-12-03T11:53:47.752Z,56.01
2018-12-03T11:54:47.645Z,56.31
2018-12-03T11:55:47.775Z,55.58
2018-12-03T11:56:47.628Z,55.71
2018-12-03T11:57:47.800Z,54.68
2018-12-03T11:58:47.591Z,54.78
2018-12-03T11:59:47.590Z,54.15
2018-12-03T12:00:47.641Z,53.62
2018-12-03T12:01:47.562Z,53.12
2018-12-03T12:02:47.658Z,52.69
2018-12-03T12:03:47.542Z,51.76
2018-12-03T12:04:47.691Z,52.07
2018-12-03T12:05:47.522Z,52.07
2018-12-03T12:06:47.597Z,51.67
2018-12-03T12:07:47.505Z,52.77
2018-12-03T12:08:47.639Z,52.97
2018-12-03T12:09:47.486Z,53.39
2018-12-03T12:10:47.535Z,54.22
2018-12-03T12:11:47.505Z,54.72
2018-12-03T12:12:47.577Z,54.85
2018-12-03T12:13:47.471Z,54.45
2018-12-03T12:14:47.594Z,55.18
2018-12-03T12:15:47.407Z,55.38
2018-12-03T12:16:47.519Z,56.01
2018-12-03T12:17:47.406Z,55.91
2018-12-03T12:18:47.542Z,55.99
2018-12-03T12:19:48.045Z,55.41
2018-12-03T12:20:47.466Z,55.58
2018-12-03T12:21:47.360Z,55.18
2018-12-03T12:22:47.388Z,54.48
2018-12-03T12:23:47.328Z,54.65
2018-12-03T12:24:47.406Z,54.05
2018-12-03T12:25:47.338Z,54.35
2018-12-03T12:26:47.456Z,53.92
2018-12-03T12:27:47.285Z,53.32
2018-12-03T12:28:47.452Z,54.13
2018-12-03T12:29:47.337Z,53.52
2018-12-03T12:30:47.256Z,53.12
2018-12-03T12:31:47.385Z,53.39
2018-12-03T12:32:47.240Z,52.49
2018-12-03T12:33:47.427Z,52.39
2018-12-03T12:34:47.213Z,51.69
2018-12-03T12:35:47.525Z,51.67
2018-12-03T12:36:47.184Z,51.67
2018-12-03T12:37:47.376Z,52.07
2018-12-03T12:38:47.178Z,51.74
2018-12-03T12:39:47.165Z,50.42
2018-12-03T12:40:47.196Z,50.92
2018-12-03T12:41:47.133Z,50.81
2018-12-03T12:42:47.231Z,50.42
2018-12-03T12:43:47.147Z,50.62
2018-12-03T12:44:47.140Z,49.99
2018-12-03T12:45:47.198Z,50.31
2018-12-03T12:46:47.150Z,50.11
2018-12-03T12:47:47.185Z,50.01
2018-12-03T12:48:47.066Z,50.81
2018-12-03T12:49:47.196Z,49.81
2018-12-03T12:50:47.039Z,49.91
2018-12-03T12:51:51.631Z,49.91
2018-12-03T12:52:47.934Z,49.51
2018-12-03T12:53:47.138Z,49.81
2018-12-03T12:54:47.114Z,49.51
2018-12-03T12:55:47.194Z,50.11
2018-12-03T12:56:46.989Z,50.62
2018-12-03T12:57:46.976Z,50.31
2018-12-03T12:58:47.115Z,50.34
2018-12-03T12:59:46.961Z,49.93
2018-12-03T13:00:47.125Z,49.93
2018-12-03T13:01:46.940Z,50.34
2018-12-03T13:02:47.062Z,50.04
2018-12-03T13:03:46.895Z,50.24
2018-12-03T13:04:46.977Z,50.42
2018-12-03T13:05:46.898Z,49.51
2018-12-03T13:06:46.989Z,49.91
2018-12-03T13:07:46.855Z,50.11
2018-12-03T13:08:47.029Z,49.61
2018-12-03T13:09:46.832Z,49.69
2018-12-03T13:10:46.935Z,49.69
2018-12-03T13:11:46.815Z,49.79
2018-12-03T13:12:46.957Z,49.39
2018-12-03T13:13:46.791Z,49.39
2018-12-03T13:14:46.870Z,49.49
2018-12-03T13:15:46.776Z,49.39
2018-12-03T13:16:46.905Z,48.54
2018-12-03T13:17:46.778Z,48.02
2018-12-03T13:18:46.926Z,47.79
2018-12-03T13:19:46.728Z,47.09
2018-12-03T13:20:46.731Z,47.39
2018-12-03T13:21:46.860Z,46.97
2018-12-03T13:22:46.700Z,45.77
2018-12-03T13:23:46.781Z,46.17
2018-12-03T13:24:46.674Z,46.05
2018-12-03T13:25:46.811Z,46.50
2018-12-03T13:26:46.660Z,47.19
2018-12-03T13:27:46.731Z,47.60
2018-12-03T13:28:46.637Z,47.60
2018-12-03T13:29:46.743Z,47.27
2018-12-03T13:30:46.609Z,46.55
2018-12-03T13:31:46.761Z,46.13
2018-12-03T13:32:46.617Z,44.89
2018-12-03T13:33:46.689Z,44.79
2018-12-03T13:34:46.641Z,43.67
2018-12-03T13:35:46.714Z,43.45
2018-12-03T13:36:46.535Z,44.05
2018-12-03T13:37:46.742Z,44.02
2018-12-03T13:38:46.546Z,43.82
2018-12-03T13:39:46.520Z,42.93
2018-12-03T13:40:46.675Z,42.43
2018-12-03T13:41:46.498Z,42.73
2018-12-03T13:42:46.694Z,42.53
2018-12-03T13:43:46.489Z,43.43
2018-12-03T13:44:46.507Z,43.52
2018-12-03T13:45:46.459Z,43.23
2018-12-03T13:46:46.448Z,42.43
2018-12-03T13:47:46.544Z,43.52
2018-12-03T13:48:46.424Z,42.71
2018-12-03T13:49:46.591Z,42.51
2018-12-03T13:50:46.394Z,42.21
2018-12-03T13:51:46.473Z,42.59
2018-12-03T13:52:46.498Z,41.79
2018-12-03T13:53:46.410Z,41.60
2018-12-03T13:54:46.513Z,41.30
2018-12-03T13:55:46.347Z,42.01
2018-12-03T13:56:46.568Z,43.30
2018-12-03T13:57:46.343Z,42.73
2018-12-03T13:58:46.480Z,42.71
2018-12-03T13:59:46.299Z,42.41
2018-12-03T14:00:46.537Z,41.61
2018-12-03T14:01:46.289Z,41.60
2018-12-03T14:02:46.431Z,41.87
2018-12-03T14:03:46.258Z,41.08
2018-12-03T14:04:46.344Z,40.56
2018-12-03T14:05:46.335Z,41.17
2018-12-03T14:06:46.419Z,40.96
2018-12-03T14:07:46.220Z,41.17
2018-12-03T14:08:46.277Z,41.46
2018-12-03T14:09:46.216Z,41.25
2018-12-03T14:10:47.344Z,41.38
2018-12-03T14:11:46.177Z,41.47
2018-12-03T14:12:46.226Z,41.77
2018-12-03T14:13:46.185Z,41.06
2018-12-03T14:14:46.452Z,41.06
2018-12-03T14:15:46.499Z,41.47
2018-12-03T14:16:46.289Z,41.99
2018-12-03T14:17:46.109Z,42.71
2018-12-03T14:18:48.266Z,42.63
2018-12-03T14:19:46.158Z,42.43
2018-12-03T14:20:47.726Z,43.63
2018-12-03T14:21:46.129Z,43.95
2018-12-03T14:22:47.200Z,42.85
2018-12-03T14:23:46.064Z,42.49
2018-12-03T14:24:46.211Z,43.73
2018-12-03T14:25:46.035Z,45.67
2018-12-03T14:26:46.764Z,45.51
2018-12-03T14:27:46.218Z,47.24
2018-12-03T14:28:50.818Z,48.36
2018-12-03T14:29:46.057Z,48.76
2018-12-03T14:30:48.183Z,49.76
2018-12-03T14:31:46.730Z,49.26
2018-12-03T14:32:48.982Z,48.76
2018-12-03T14:33:46.234Z,48.24
2018-12-03T14:34:46.051Z,48.44
2018-12-03T14:35:46.077Z,48.54
2018-12-03T14:36:45.941Z,48.57
2018-12-03T14:37:47.036Z,48.66
2018-12-03T14:38:45.978Z,49.37
2018-12-03T14:39:47.081Z,49.49
2018-12-03T14:40:45.945Z,49.57
2018-12-03T14:41:46.111Z,48.28
2018-12-03T14:42:45.861Z,48.81
2018-12-03T14:43:46.305Z,49.61
2018-12-03T14:44:45.928Z,49.84
2018-12-03T14:45:47.060Z,50.56
2018-12-03T14:46:45.885Z,51.69
2018-12-03T14:47:45.946Z,51.79
2018-12-03T14:48:45.844Z,52.01
2018-12-03T14:49:45.848Z,52.72
2018-12-03T14:50:45.771Z,52.72
2018-12-03T14:51:51.735Z,52.82
2018-12-03T14:52:45.738Z,52.94
2018-12-03T14:53:45.915Z,53.12
2018-12-03T14:54:45.743Z,54.22
2018-12-03T14:55:45.817Z,54.25
2018-12-03T14:56:45.701Z,54.35
2018-12-03T14:57:45.844Z,54.85
2018-12-03T14:58:45.662Z,54.05
2018-12-03T14:59:45.855Z,53.75
2018-12-03T15:00:45.670Z,54.35
2018-12-03T15:01:45.808Z,54.25
2018-12-03T15:02:45.693Z,54.35
2018-12-03T15:03:45.820Z,54.65
2018-12-03T15:04:45.626Z,54.75
2018-12-03T15:05:45.642Z,54.85
2018-12-03T15:06:45.589Z,54.48
2018-12-03T15:07:45.701Z,55.08
2018-12-03T15:08:45.574Z,54.78
2018-12-03T15:09:45.714Z,54.78
2018-12-03T15:10:45.611Z,54.48
2018-12-03T15:11:45.634Z,54.68
2018-12-03T15:12:45.668Z,54.80
2018-12-03T15:13:45.805Z,54.60
2018-12-03T15:14:45.583Z,54.50
2018-12-03T15:15:45.550Z,54.71
2018-12-03T15:16:45.694Z,54.60
2018-12-03T15:17:45.567Z,54.50
2018-12-03T15:18:45.668Z,54.20
2018-12-03T15:19:45.484Z,54.13
2018-12-03T15:20:46.741Z,54.63
2018-12-03T15:21:45.426Z,54.83
2018-12-03T15:22:45.575Z,54.93
2018-12-03T15:23:45.443Z,54.83
2018-12-03T15:24:45.509Z,54.93
2018-12-03T15:25:46.178Z,54.93
2018-12-03T15:26:45.520Z,55.13
2018-12-03T15:27:45.374Z,55.33
2018-12-03T15:28:46.453Z,55.23
2018-12-03T15:29:46.041Z,55.23
2018-12-03T15:30:45.467Z,54.93
2018-12-03T15:31:45.681Z,54.55
2018-12-03T15:32:45.502Z,55.46
2018-12-03T15:33:45.320Z,55.63
2018-12-03T15:34:45.421Z,54.55
2018-12-03T15:35:45.291Z,55.13
2018-12-03T15:36:45.429Z,54.23
2018-12-03T15:37:45.267Z,54.43
2018-12-03T15:38:45.446Z,54.63
2018-12-03T15:39:45.253Z,54.43
2018-12-03T15:40:45.229Z,53.92
2018-12-03T15:41:45.329Z,54.23
2018-12-03T15:42:45.214Z,53.80
2018-12-03T15:43:45.300Z,52.37
2018-12-03T15:44:45.193Z,52.04
2018-12-03T15:45:45.336Z,51.74
2018-12-03T15:46:45.162Z,51.72
2018-12-03T15:47:45.247Z,51.19
2018-12-03T15:48:45.275Z,50.09
2018-12-03T15:49:45.306Z,50.06
2018-12-03T15:50:45.122Z,50.76
2018-12-03T15:51:45.296Z,49.76
2018-12-03T15:52:45.097Z,50.04
2018-12-03T15:53:46.250Z,49.54
2018-12-03T15:54:45.090Z,49.33
2018-12-03T15:55:45.242Z,49.74
2018-12-03T15:56:45.057Z,49.23
2018-12-03T15:57:47.365Z,49.33
2018-12-03T15:58:45.059Z,49.11
2018-12-03T15:59:45.182Z,48.63
2018-12-03T16:00:45.010Z,48.81
2018-12-03T16:01:45.118Z,48.71
2018-12-03T16:02:45.001Z,48.61
2018-12-03T16:03:45.125Z,48.51
2018-12-03T16:04:44.970Z,48.51
2018-12-03T16:05:45.062Z,48.61
2018-12-03T16:06:44.993Z,48.51
2018-12-03T16:07:45.087Z,48.13
2018-12-03T16:08:44.926Z,47.91
2018-12-03T16:09:45.004Z,48.83
2018-12-03T16:10:44.914Z,49.33
2018-12-03T16:11:45.019Z,49.54
2018-12-03T16:12:45.537Z,49.93
2018-12-03T16:13:45.051Z,49.05
2018-12-03T16:14:44.870Z,49.66
2018-12-03T16:15:45.986Z,49.86
2018-12-03T16:16:44.849Z,50.16
2018-12-03T16:17:44.983Z,50.16
2018-12-03T16:18:44.900Z,49.98
2018-12-03T16:19:45.060Z,49.78
2018-12-03T16:20:44.784Z,50.38
2018-12-03T16:21:44.962Z,50.79
2018-12-03T16:22:44.781Z,49.88
2018-12-03T16:23:44.852Z,49.78
2018-12-03T16:24:44.750Z,50.11
2018-12-03T16:25:44.885Z,50.31
2018-12-03T16:26:44.736Z,50.81
2018-12-03T16:27:44.796Z,51.01
2018-12-03T16:28:44.741Z,51.11
2018-12-03T16:29:44.833Z,50.51
2018-12-03T16:30:44.689Z,50.73
2018-12-03T16:31:44.850Z,50.53
2018-12-03T16:32:44.664Z,51.34
2018-12-03T16:33:44.775Z,51.66
2018-12-03T16:34:44.648Z,51.56
2018-12-03T16:35:45.009Z,51.86
2018-12-03T16:36:44.633Z,51.99
2018-12-03T16:37:45.743Z,51.79
2018-12-03T16:38:44.604Z,52.26
2018-12-03T16:39:44.736Z,52.06
2018-12-03T16:40:44.620Z,52.19
2018-12-03T16:41:44.761Z,52.29
2018-12-03T16:42:44.569Z,52.49
2018-12-03T16:43:44.684Z,52.80
2018-12-03T16:44:44.557Z,52.80
2018-12-03T16:45:44.603Z,52.62
2018-12-03T16:46:44.515Z,53.12
2018-12-03T16:47:44.637Z,53.22
2018-12-03T16:48:44.497Z,53.12
2018-12-03T16:49:44.654Z,53.72
2018-12-03T16:50:44.480Z,53.42
2018-12-03T16:51:44.568Z,53.52
2018-12-03T16:52:44.484Z,52.92
2018-12-03T16:53:44.614Z,53.92
2018-12-03T16:54:44.460Z,53.92
2018-12-03T16:55:44.507Z,54.03
2018-12-03T16:56:44.418Z,53.25
2018-12-03T16:57:44.540Z,53.75
2018-12-03T16:58:44.398Z,53.72
2018-12-03T16:59:44.575Z,53.42
2018-12-03T17:00:44.389Z,53.32
2018-12-03T17:01:44.493Z,52.92
2018-12-03T17:02:44.364Z,52.82
2018-12-03T17:03:44.432Z,52.59
2018-12-03T17:04:44.332Z,52.29
2018-12-03T17:05:44.438Z,52.19
2018-12-03T17:06:44.300Z,52.29
2018-12-03T17:07:44.366Z,52.09
2018-12-03T17:08:44.293Z,52.06
2018-12-03T17:09:44.382Z,51.46
2018-12-03T17:10:44.303Z,51.66
2018-12-03T17:11:44.417Z,51.26
2018-12-03T17:12:44.242Z,50.76
2018-12-03T17:13:44.330Z,50.66
2018-12-03T17:14:44.218Z,50.93
2018-12-03T17:15:44.389Z,50.84
2018-12-03T17:16:44.222Z,50.43
2018-12-03T17:17:44.383Z,50.11
2018-12-03T17:18:44.179Z,50.33
2018-12-03T17:19:44.295Z,50.13
2018-12-03T17:20:44.154Z,49.83
2018-12-03T17:21:44.341Z,50.11
2018-12-03T17:22:44.150Z,50.01
2018-12-03T17:23:44.328Z,50.01
2018-12-03T17:24:44.118Z,50.31
2018-12-03T17:25:44.158Z,49.91
2018-12-03T17:26:44.105Z,50.51
2018-12-03T17:27:44.194Z,50.01
2018-12-03T17:28:44.089Z,50.81
2018-12-03T17:29:44.213Z,49.60
2018-12-03T17:30:44.064Z,49.80
2018-12-03T17:31:44.138Z,49.80
2018-12-03T17:32:44.025Z,49.91
2018-12-03T17:33:44.152Z,49.71
2018-12-03T17:34:48.823Z,50.61
2018-12-03T17:35:45.193Z,50.21
2018-12-03T17:36:43.988Z,50.01
2018-12-03T17:37:44.095Z,50.03
2018-12-03T17:38:43.965Z,50.03
2018-12-03T17:39:44.119Z,49.80
2018-12-03T17:40:43.953Z,50.41
2018-12-03T17:41:44.165Z,50.33
2018-12-03T17:42:43.933Z,50.13
2018-12-03T17:43:44.082Z,50.53
2018-12-03T17:44:43.913Z,50.53
2018-12-03T17:45:43.989Z,49.93
2018-12-03T17:46:43.885Z,50.23
2018-12-03T17:47:43.917Z,50.26
2018-12-03T17:48:43.881Z,50.93
2018-12-03T17:49:43.934Z,50.86
2018-12-03T17:50:43.842Z,50.56
2018-12-03T17:51:43.957Z,50.46
2018-12-03T17:52:43.826Z,50.76
2018-12-03T17:53:43.880Z,51.06
2018-12-03T17:54:43.804Z,51.16
2018-12-03T17:55:43.906Z,50.76
2018-12-03T17:56:43.773Z,50.78
2018-12-03T17:57:43.944Z,50.78
2018-12-03T17:58:43.763Z,51.18
2018-12-03T17:59:43.849Z,51.39
2018-12-03T18:00:43.747Z,51.89
2018-12-03T18:01:43.871Z,51.89
2018-12-03T18:02:43.721Z,51.89
2018-12-03T18:03:43.908Z,51.59
2018-12-03T18:04:43.698Z,51.81
2018-12-03T18:05:43.712Z,51.61
2018-12-03T18:06:43.695Z,51.71
2018-12-03T18:07:43.742Z,51.61
2018-12-03T18:08:43.656Z,51.51
2018-12-03T18:09:43.763Z,51.81
2018-12-03T18:10:43.635Z,52.31
2018-12-03T18:11:44.578Z,51.81
2018-12-03T18:12:43.626Z,51.81
2018-12-03T18:13:43.715Z,52.22
2018-12-03T18:14:43.587Z,51.81
2018-12-03T18:15:43.731Z,51.81
2018-12-03T18:16:43.566Z,51.81
2018-12-03T18:17:43.655Z,52.42
2018-12-03T18:18:43.560Z,52.01
2018-12-03T18:19:43.675Z,51.81
2018-12-03T18:20:43.526Z,52.31
2018-12-03T18:21:43.729Z,52.11
2018-12-03T18:22:43.497Z,52.31
2018-12-03T18:23:43.632Z,52.11
2018-12-03T18:24:43.500Z,52.11
2018-12-03T18:25:43.652Z,52.11
2018-12-03T18:26:43.504Z,52.14
2018-12-03T18:27:43.573Z,52.34
2018-12-03T18:28:43.434Z,52.04
2018-12-03T18:29:43.487Z,51.84
2018-12-03T18:30:43.443Z,52.24
2018-12-03T18:31:43.520Z,51.93
2018-12-03T18:32:43.421Z,52.34
2018-12-03T18:33:43.538Z,52.34
2018-12-03T18:34:43.378Z,52.14
2018-12-03T18:35:43.457Z,51.86
2018-12-03T18:36:43.414Z,51.86
2018-12-03T18:37:43.477Z,52.14
2018-12-03T18:38:43.334Z,52.17
2018-12-03T18:39:43.520Z,52.17
2018-12-03T18:40:43.313Z,52.06
2018-12-03T18:41:43.458Z,51.97
2018-12-03T18:42:43.386Z,51.76
2018-12-03T18:43:43.464Z,52.37
2018-12-03T18:44:43.275Z,52.17
2018-12-03T18:45:43.475Z,51.86
2018-12-03T18:46:43.252Z,52.47
2018-12-03T18:47:43.399Z,52.17
2018-12-03T18:48:43.227Z,52.17
2018-12-03T18:49:43.308Z,52.17
2018-12-03T18:50:43.199Z,52.06
2018-12-03T18:51:43.238Z,52.06
2018-12-03T18:52:43.192Z,52.37
2018-12-03T18:53:43.259Z,51.97
2018-12-03T18:54:43.161Z,52.26
2018-12-03T18:55:43.277Z,52.06
2018-12-03T18:56:43.174Z,52.06
2018-12-03T18:57:43.206Z,52.14
2018-12-03T18:58:43.122Z,51.34
2018-12-03T18:59:43.219Z,51.73
2018-12-03T19:00:43.099Z,50.93
2018-12-03T19:01:43.279Z,50.93
2018-12-03T19:02:43.085Z,50.83
2018-12-03T19:03:43.184Z,50.81
2018-12-03T19:04:43.054Z,51.31
2018-12-03T19:05:43.192Z,50.40
2018-12-03T19:06:43.035Z,50.51
2018-12-03T19:07:43.242Z,50.40
2018-12-03T19:08:43.030Z,50.20
2018-12-03T19:09:43.035Z,50.10
2018-12-03T19:10:43.002Z,50.60
2018-12-03T19:11:43.062Z,50.40
2018-12-03T19:12:42.995Z,50.71
2018-12-03T19:13:42.949Z,50.51
2018-12-03T19:14:43.105Z,49.80
2018-12-03T19:15:42.942Z,50.20
2018-12-03T19:16:43.016Z,50.31
2018-12-03T19:17:42.923Z,50.31
2018-12-03T19:18:43.044Z,50.51
2018-12-03T19:19:42.893Z,50.71
2018-12-03T19:20:43.074Z,50.60
2018-12-03T19:21:42.903Z,50.20
2018-12-03T19:22:42.992Z,50.91
2018-12-03T19:23:42.859Z,50.20
2018-12-03T19:24:43.019Z,50.10
2018-12-03T19:25:43.016Z,50.10
2018-12-03T19:26:42.820Z,49.80
2018-12-03T19:27:42.946Z,50.40
2018-12-03T19:28:42.795Z,50.20
2018-12-03T19:29:42.963Z,50.51
2018-12-03T19:30:42.816Z,50.51
2018-12-03T19:31:42.894Z,50.81
2018-12-03T19:32:42.764Z,50.10
2018-12-03T19:33:42.809Z,50.00
2018-12-03T19:34:42.755Z,49.90
2018-12-03T19:35:42.837Z,49.80
2018-12-03T19:36:42.741Z,49.80
2018-12-03T19:37:42.738Z,50.00
2018-12-03T19:38:42.867Z,50.71
2018-12-03T19:39:42.708Z,50.83
2018-12-03T19:40:42.787Z,50.40
2018-12-03T19:41:42.689Z,50.10
2018-12-03T19:42:42.854Z,49.90
2018-12-03T19:43:42.710Z,50.51
2018-12-03T19:44:42.859Z,50.00
2018-12-03T19:45:42.622Z,50.10
2018-12-03T19:46:42.798Z,50.31
2018-12-03T19:47:42.597Z,49.90
2018-12-03T19:48:42.787Z,50.00
2018-12-03T19:49:42.608Z,50.20
2018-12-03T19:50:42.711Z,50.10
2018-12-03T19:51:42.565Z,49.70
2018-12-03T19:52:42.638Z,49.80
2018-12-03T19:53:42.552Z,50.08
2018-12-03T19:54:42.646Z,49.90
2018-12-03T19:55:42.525Z,49.48
2018-12-03T19:56:42.593Z,49.48
2018-12-03T19:57:42.494Z,49.48
2018-12-03T19:58:42.592Z,49.57
2018-12-03T19:59:42.495Z,49.18
2018-12-03T20:00:42.617Z,49.18
2018-12-03T20:01:42.457Z,48.67
2018-12-03T20:02:42.557Z,49.18
2018-12-03T20:03:42.434Z,49.10
2018-12-03T20:04:42.564Z,48.90
2018-12-03T20:05:42.406Z,49.10
2018-12-03T20:06:42.633Z,49.50
2018-12-03T20:07:42.390Z,49.40
2018-12-03T20:08:42.517Z,49.60
2018-12-03T20:09:42.389Z,49.57
2018-12-03T20:10:42.875Z,49.70
2018-12-03T20:11:42.351Z,49.70
2018-12-03T20:12:42.459Z,49.60
2018-12-03T20:13:42.353Z,49.50
2018-12-03T20:14:42.377Z,49.40
2018-12-03T20:15:42.314Z,49.40
2018-12-03T20:16:42.396Z,49.50
2018-12-03T20:17:43.588Z,49.40
2018-12-03T20:18:42.420Z,49.10
2018-12-03T20:19:42.285Z,48.59
2018-12-03T20:20:42.333Z,48.57
2018-12-03T20:21:42.241Z,48.17
2018-12-03T20:22:42.375Z,48.77
2018-12-03T20:23:42.213Z,48.37
2018-12-03T20:24:44.337Z,48.77
2018-12-03T20:25:42.225Z,48.97
2018-12-03T20:26:42.315Z,48.97
2018-12-03T20:27:42.214Z,48.37
2018-12-03T20:28:42.343Z,48.67
2018-12-03T20:29:42.149Z,48.97
2018-12-03T20:30:42.259Z,48.57
2018-12-03T20:31:42.147Z,48.67
2018-12-03T20:32:42.177Z,48.47
2018-12-03T20:33:42.107Z,48.77
2018-12-03T20:34:42.201Z,49.07
2018-12-03T20:35:42.110Z,48.97
2018-12-03T20:36:42.125Z,48.97
2018-12-03T20:37:42.064Z,48.79
2018-12-03T20:38:42.142Z,48.77
2018-12-03T20:39:42.047Z,48.69
2018-12-03T20:40:42.178Z,48.69
2018-12-03T20:41:42.031Z,48.39
2018-12-03T20:42:42.209Z,48.39
2018-12-03T20:43:42.004Z,48.29
2018-12-03T20:44:42.160Z,48.39
2018-12-03T20:45:41.977Z,48.90
2018-12-03T20:46:42.146Z,48.69
2018-12-03T20:47:41.964Z,49.10
2018-12-03T20:48:42.105Z,48.77
2018-12-03T20:49:41.945Z,48.37
2018-12-03T20:50:43.650Z,48.57
2018-12-03T20:51:41.917Z,48.27
2018-12-03T20:52:47.198Z,48.17
2018-12-03T20:53:42.911Z,48.27
2018-12-03T20:54:41.936Z,48.27
2018-12-03T20:55:41.877Z,48.27
2018-12-03T20:56:41.951Z,48.57
2018-12-03T20:57:41.847Z,48.17
2018-12-03T20:58:41.973Z,48.07
2018-12-03T20:59:41.839Z,48.17
2018-12-03T21:00:41.903Z,48.17
2018-12-03T21:01:41.802Z,48.07
2018-12-03T21:02:41.923Z,48.57
2018-12-03T21:03:41.793Z,48.37
2018-12-03T21:04:41.953Z,48.27
2018-12-03T21:05:41.769Z,47.97
2018-12-03T21:06:41.860Z,48.07
2018-12-03T21:07:41.745Z,48.39
2018-12-03T21:08:41.901Z,48.17
2018-12-03T21:09:41.724Z,48.07
2018-12-03T21:10:41.912Z,48.27
2018-12-03T21:11:41.704Z,48.27
2018-12-03T21:12:41.838Z,47.99
2018-12-03T21:13:41.695Z,47.97
2018-12-03T21:14:41.753Z,47.99
2018-12-03T21:15:41.683Z,48.19
2018-12-03T21:16:41.771Z,48.57
2018-12-03T21:17:41.633Z,48.47
2018-12-03T21:18:41.690Z,48.37
2018-12-03T21:19:41.626Z,48.17
2018-12-03T21:20:41.729Z,47.77
2018-12-03T21:21:41.603Z,47.56
2018-12-03T21:22:41.749Z,48.07
2018-12-03T21:23:41.581Z,48.07
2018-12-03T21:24:41.699Z,47.64